Time;durP1;ratioP1;P1;durP2;ratioP2;P2;SDS_P1;SDS_P2;PMS_P1;PMS_P2;Temp;Humidity;BMP_temperature;BMP_pressure;BME280_temperature;BME280_humidity;BME280_pressure;Samples;Min_cycle;Max_cycle;Signal;HPM_P1;HPM_P2
2022/09/21 00:00:48;;;;;;;6.93;0.90;;;;;;;;;;5093650;28;20042;-70
2022/09/21 00:03:14;;;;;;;6.85;0.98;;;;;;;;;;5093311;28;20080;-70
2022/09/21 00:05:41;;;;;;;4.63;1.10;;;;;;;;;;5093249;28;20016;-69
2022/09/21 00:08:08;;;;;;;3.50;0.88;;;;;;;;;;5092885;28;20050;-69
2022/09/21 00:10:34;;;;;;;4.68;1.00;;;;;;;;;;5092818;28;20020;-69
2022/09/21 00:13:03;;;;;;;3.83;0.90;;;;;;;;;;5093038;28;20449;-69
2022/09/21 00:15:30;;;;;;;4.88;1.10;;;;;;;;;;5093570;28;20027;-69
2022/09/21 00:17:57;;;;;;;2.28;1.00;;;;;;;;;;5093309;28;20019;-69
2022/09/21 00:20:24;;;;;;;2.38;0.88;;;;;;;;;;5092318;28;20024;-70
2022/09/21 00:22:51;;;;;;;3.55;0.98;;;;;;;;;;5093090;28;20033;-69
2022/09/21 00:25:18;;;;;;;4.57;0.70;;;;;;;;;;5092886;28;20024;-70
2022/09/21 00:27:47;;;;;;;3.30;1.10;;;;;;;;;;5093107;28;20027;-69
2022/09/21 00:30:14;;;;;;;2.40;1.00;;;;;;;;;;5092766;28;20028;-69
2022/09/21 00:32:40;;;;;;;5.68;1.17;;;;;;;;;;5091437;28;20048;-69
2022/09/21 00:35:08;;;;;;;1.63;0.93;;;;;;;;;;5092475;28;20024;-69
2022/09/21 00:37:34;;;;;;;2.50;0.70;;;;;;;;;;5092943;28;20076;-69
2022/09/21 00:40:01;;;;;;;3.17;1.30;;;;;;;;;;5091462;28;20028;-69
2022/09/21 00:42:29;;;;;;;5.85;1.00;;;;;;;;;;5092876;28;20032;-69
2022/09/21 00:44:55;;;;;;;4.93;0.85;;;;;;;;;;5092902;28;20072;-69
2022/09/21 00:47:24;;;;;;;4.15;0.98;;;;;;;;;;5092943;28;20023;-69
2022/09/21 00:49:53;;;;;;;1.73;0.90;;;;;;;;;;5092087;28;20031;-69
2022/09/21 00:52:19;;;;;;;6.18;0.98;;;;;;;;;;5092396;28;20034;-69
2022/09/21 00:54:51;;;;;;;2.35;1.02;;;;;;;;;;5092463;28;20422;-69
2022/09/21 00:57:20;;;;;;;4.68;0.82;;;;;;;;;;5108230;28;20032;-69
2022/09/21 00:59:47;;;;;;;2.05;0.82;;;;;;;;;;5092338;28;20035;-69
2022/09/21 01:02:14;;;;;;;3.10;1.13;;;;;;;;;;5092415;28;20061;-69
2022/09/21 01:04:40;;;;;;;2.25;1.00;;;;;;;;;;5091892;28;20024;-70
2022/09/21 01:07:11;;;;;;;4.28;1.00;;;;;;;;;;5092528;28;20093;-69
2022/09/21 01:09:37;;;;;;;3.63;1.10;;;;;;;;;;5092291;28;20042;-69
2022/09/21 01:12:23;;;;;;;5.28;1.17;;;;;;;;;;5091963;28;20105;-69
2022/09/21 01:14:55;;;;;;;4.13;1.17;;;;;;;;;;5092260;28;20040;-69
2022/09/21 01:17:42;;;;;;;5.45;0.93;;;;;;;;;;5092167;28;20020;-69
2022/09/21 01:20:27;;;;;;;4.65;0.90;;;;;;;;;;5091785;28;20032;-69
2022/09/21 01:23:25;;;;;;;3.97;0.90;;;;;;;;;;5092266;28;20008;-69
2022/09/21 01:26:11;;;;;;;3.67;1.02;;;;;;;;;;5069640;28;20029;-69
2022/09/21 01:28:43;;;;;;;5.65;1.20;;;;;;;;;;5069875;28;20045;-70
2022/09/21 01:31:14;;;;;;;7.50;1.10;;;;;;;;;;5069612;28;20021;-69
2022/09/21 01:33:43;;;;;;;3.65;1.00;;;;;;;;;;5054836;28;20040;-69
2022/09/21 01:36:13;;;;;;;5.13;1.35;;;;;;;;;;5057310;28;20047;-70
2022/09/21 01:38:49;;;;;;;3.38;1.13;;;;;;;;;;5073492;28;20021;-69
2022/09/21 01:41:17;;;;;;;3.10;0.95;;;;;;;;;;5073417;28;20183;-69
2022/09/21 01:43:47;;;;;;;2.72;0.90;;;;;;;;;;5073511;28;20064;-70
2022/09/21 01:46:16;;;;;;;4.38;1.00;;;;;;;;;;5073613;28;20025;-69
2022/09/21 01:48:45;;;;;;;4.60;1.10;;;;;;;;;;5073101;28;20051;-69
2022/09/21 01:51:13;;;;;;;7.85;1.05;;;;;;;;;;5073049;28;20037;-69
2022/09/21 01:53:42;;;;;;;6.72;1.17;;;;;;;;;;5073308;28;20039;-69
2022/09/21 01:56:15;;;;;;;2.88;1.05;;;;;;;;;;5073379;28;20044;-69
2022/09/21 01:58:49;;;;;;;5.88;1.00;;;;;;;;;;5073286;28;20638;-70
2022/09/21 02:01:19;;;;;;;4.53;1.00;;;;;;;;;;5074069;28;20043;-70
2022/09/21 02:03:54;;;;;;;4.90;1.15;;;;;;;;;;5075244;28;20028;-69
2022/09/21 02:06:20;;;;;;;4.18;0.90;;;;;;;;;;5075233;28;20029;-69
2022/09/21 02:08:47;;;;;;;3.53;0.80;;;;;;;;;;5075250;28;20027;-69
2022/09/21 02:11:13;;;;;;;2.47;1.00;;;;;;;;;;5080563;28;20401;-69
2022/09/21 02:13:41;;;;;;;5.32;1.00;;;;;;;;;;5094056;28;20437;-69
2022/09/21 02:16:14;;;;;;;1.63;0.70;;;;;;;;;;5095708;28;20081;-69
2022/09/21 02:18:59;;;;;;;3.70;1.15;;;;;;;;;;5094031;28;20399;-70
2022/09/21 02:21:44;;;;;;;4.13;1.10;;;;;;;;;;5095391;28;20480;-70
2022/09/21 02:24:20;;;;;;;1.63;0.75;;;;;;;;;;5095466;28;20096;-69
2022/09/21 02:26:53;;;;;;;3.75;0.80;;;;;;;;;;5095171;28;20047;-69
2022/09/21 02:29:31;;;;;;;6.07;1.00;;;;;;;;;;5095105;28;20022;-69
2022/09/21 02:32:12;;;;;;;3.20;0.90;;;;;;;;;;5094404;28;20040;-69
2022/09/21 02:34:46;;;;;;;5.63;1.00;;;;;;;;;;5095018;28;20080;-69
2022/09/21 02:37:30;;;;;;;4.13;0.93;;;;;;;;;;5094942;28;20016;-69
2022/09/21 02:40:03;;;;;;;5.40;1.13;;;;;;;;;;5095094;28;20016;-69
2022/09/21 02:42:30;;;;;;;4.22;1.10;;;;;;;;;;5094829;28;20560;-69
2022/09/21 02:45:05;;;;;;;3.22;0.90;;;;;;;;;;5094406;28;20023;-69
2022/09/21 02:47:51;;;;;;;2.40;1.10;;;;;;;;;;5094542;28;20476;-70
2022/09/21 02:50:22;;;;;;;4.57;1.15;;;;;;;;;;5094932;28;20027;-70
2022/09/21 02:52:49;;;;;;;4.00;1.50;;;;;;;;;;5094753;28;20051;-69
2022/09/21 02:55:16;;;;;;;3.15;1.20;;;;;;;;;;5094820;28;20024;-69
2022/09/21 02:57:43;;;;;;;3.92;0.93;;;;;;;;;;5094421;28;20021;-69
2022/09/21 03:00:10;;;;;;;4.50;1.20;;;;;;;;;;5094383;28;20021;-69
2022/09/21 03:02:40;;;;;;;3.78;1.30;;;;;;;;;;5094428;28;20024;-69
2022/09/21 03:05:07;;;;;;;8.67;1.30;;;;;;;;;;5094654;28;20034;-70
2022/09/21 03:07:34;;;;;;;3.20;1.02;;;;;;;;;;5094352;28;20388;-69
2022/09/21 03:10:00;;;;;;;3.63;0.93;;;;;;;;;;5094423;28;20032;-69
2022/09/21 03:12:27;;;;;;;5.97;1.02;;;;;;;;;;5094004;28;20121;-69
2022/09/21 03:14:54;;;;;;;5.30;1.05;;;;;;;;;;5094096;28;20032;-69
2022/09/21 03:17:20;;;;;;;4.10;1.05;;;;;;;;;;5094482;28;20024;-70
2022/09/21 03:19:46;;;;;;;3.00;1.10;;;;;;;;;;5094100;28;20024;-69
2022/09/21 03:22:13;;;;;;;2.67;0.90;;;;;;;;;;5094105;28;20032;-69
2022/09/21 03:24:45;;;;;;;6.85;1.00;;;;;;;;;;5094038;28;20072;-69
2022/09/21 03:27:16;;;;;;;7.85;1.10;;;;;;;;;;5092737;28;20028;-69
2022/09/21 03:29:42;;;;;;;1.90;0.80;;;;;;;;;;5093943;28;20020;-69
2022/09/21 03:32:09;;;;;;;8.50;1.33;;;;;;;;;;5093740;28;20020;-69
2022/09/21 03:34:35;;;;;;;6.50;1.50;;;;;;;;;;5093872;28;20548;-69
2022/09/21 03:37:02;;;;;;;4.22;1.08;;;;;;;;;;5093797;28;20399;-70
2022/09/21 03:39:29;;;;;;;4.85;1.25;;;;;;;;;;5092628;28;20036;-69
2022/09/21 03:41:55;;;;;;;9.65;1.48;;;;;;;;;;5093609;28;20491;-69
2022/09/21 03:44:22;;;;;;;2.35;1.02;;;;;;;;;;5093317;28;20037;-69
2022/09/21 03:46:49;;;;;;;3.40;0.95;;;;;;;;;;5093733;28;20527;-69
2022/09/21 03:49:16;;;;;;;6.90;1.30;;;;;;;;;;5093459;28;20504;-69
2022/09/21 03:51:42;;;;;;;4.28;0.82;;;;;;;;;;5093341;28;20480;-69
2022/09/21 03:54:09;;;;;;;2.65;1.10;;;;;;;;;;5093551;28;20034;-69
2022/09/21 03:56:35;;;;;;;5.75;1.23;;;;;;;;;;5092563;28;20038;-69
2022/09/21 03:59:02;;;;;;;5.75;1.10;;;;;;;;;;5093079;28;20012;-69
2022/09/21 04:01:28;;;;;;;4.75;1.20;;;;;;;;;;5093507;28;20028;-69
2022/09/21 04:03:54;;;;;;;6.78;1.30;;;;;;;;;;5093362;28;20031;-69
2022/09/21 04:06:21;;;;;;;3.88;1.10;;;;;;;;;;5093302;28;20435;-69
2022/09/21 04:08:47;;;;;;;2.85;0.90;;;;;;;;;;5093431;28;20034;-69
2022/09/21 04:11:15;;;;;;;9.00;1.20;;;;;;;;;;5092868;28;20042;-69
2022/09/21 04:13:41;;;;;;;3.90;0.80;;;;;;;;;;5092715;28;20024;-69
2022/09/21 04:16:08;;;;;;;5.45;1.10;;;;;;;;;;5093514;28;20024;-69
2022/09/21 04:18:35;;;;;;;3.83;1.08;;;;;;;;;;5092896;28;20036;-69
2022/09/21 04:21:01;;;;;;;6.30;1.25;;;;;;;;;;5093232;28;20030;-69
2022/09/21 04:23:28;;;;;;;2.65;1.27;;;;;;;;;;5093024;28;20020;-69
2022/09/21 04:25:54;;;;;;;4.43;0.98;;;;;;;;;;5092936;28;20043;-69
2022/09/21 04:28:22;;;;;;;4.35;1.38;;;;;;;;;;5092421;28;19926;-69
2022/09/21 04:30:52;;;;;;;2.15;1.00;;;;;;;;;;5092863;28;20020;-69
2022/09/21 04:33:19;;;;;;;2.95;1.08;;;;;;;;;;5092877;28;20026;-69
2022/09/21 04:35:45;;;;;;;4.85;1.10;;;;;;;;;;5092784;28;20050;-69
2022/09/21 04:38:12;;;;;;;4.50;1.30;;;;;;;;;;5092775;28;20022;-69
2022/09/21 04:40:38;;;;;;;5.18;0.98;;;;;;;;;;5093027;28;20031;-69
2022/09/21 04:43:05;;;;;;;3.85;1.02;;;;;;;;;;5092202;28;20038;-69
2022/09/21 04:45:31;;;;;;;5.88;1.25;;;;;;;;;;5092907;28;20020;-69
2022/09/21 04:47:57;;;;;;;3.83;1.25;;;;;;;;;;5092698;28;20027;-69
2022/09/21 04:50:24;;;;;;;4.30;1.10;;;;;;;;;;5092814;28;20008;-69
2022/09/21 04:52:50;;;;;;;2.03;0.80;;;;;;;;;;5092695;28;20020;-69
2022/09/21 04:55:17;;;;;;;7.28;0.93;;;;;;;;;;5092430;28;20020;-69
2022/09/21 04:57:43;;;;;;;5.93;1.50;;;;;;;;;;5092217;28;20069;-70
2022/09/21 05:00:10;;;;;;;4.93;1.35;;;;;;;;;;5092637;28;20024;-69
2022/09/21 05:02:36;;;;;;;5.57;1.40;;;;;;;;;;5092343;28;20032;-69
2022/09/21 05:05:02;;;;;;;5.70;1.48;;;;;;;;;;5092161;28;20020;-69
2022/09/21 05:07:29;;;;;;;3.25;1.00;;;;;;;;;;5092082;28;20040;-69
2022/09/21 05:10:01;;;;;;;6.43;1.67;;;;;;;;;;5092339;28;20024;-69
2022/09/21 05:12:28;;;;;;;6.28;1.00;;;;;;;;;;5090297;28;20523;-69
2022/09/21 05:14:54;;;;;;;3.53;1.10;;;;;;;;;;5092542;28;20028;-69
2022/09/21 05:17:22;;;;;;;4.13;0.90;;;;;;;;;;5092174;28;20030;-69
2022/09/21 05:19:48;;;;;;;4.18;1.20;;;;;;;;;;5092128;28;20032;-69
2022/09/21 05:22:15;;;;;;;3.45;1.10;;;;;;;;;;5092403;28;20152;-69
2022/09/21 05:24:41;;;;;;;6.13;1.10;;;;;;;;;;5092179;28;20406;-69
2022/09/21 05:27:07;;;;;;;5.63;1.00;;;;;;;;;;5091729;28;20028;-69
2022/09/21 05:29:34;;;;;;;6.60;1.10;;;;;;;;;;5092443;28;20038;-69
2022/09/21 05:32:09;;;;;;;14.52;1.08;;;;;;;;;;5090905;28;20038;-69
2022/09/21 05:34:44;;;;;;;2.53;1.20;;;;;;;;;;5092259;28;20026;-69
2022/09/21 05:37:29;;;;;;;5.35;1.27;;;;;;;;;;5091862;28;20053;-69
2022/09/21 05:39:56;;;;;;;8.50;1.02;;;;;;;;;;5091659;28;20050;-69
2022/09/21 05:42:22;;;;;;;4.57;1.10;;;;;;;;;;5091822;28;20036;-69
2022/09/21 05:44:49;;;;;;;9.45;1.05;;;;;;;;;;5092190;28;20031;-69
2022/09/21 05:47:15;;;;;;;3.13;1.00;;;;;;;;;;5091810;28;20026;-69
2022/09/21 05:49:45;;;;;;;4.95;1.15;;;;;;;;;;5107475;28;20027;-69
2022/09/21 05:52:30;;;;;;;3.78;1.08;;;;;;;;;;5091961;28;20484;-69
2022/09/21 05:55:02;;;;;;;5.90;1.33;;;;;;;;;;5091681;28;20024;-69
2022/09/21 05:57:43;;;;;;;8.63;1.48;;;;;;;;;;5091826;28;20058;-69
2022/09/21 06:00:18;;;;;;;4.53;1.50;;;;;;;;;;5091900;28;20024;-69
2022/09/21 06:02:57;;;;;;;2.83;1.13;;;;;;;;;;5091792;28;20044;-69
2022/09/21 06:05:23;;;;;;;3.10;1.15;;;;;;;;;;5091742;28;20484;-69
2022/09/21 06:07:50;;;;;;;3.10;1.23;;;;;;;;;;5091697;28;20419;-69
2022/09/21 06:10:16;;;;;;;4.47;1.17;;;;;;;;;;5090354;28;20061;-69
2022/09/21 06:12:43;;;;;;;5.45;1.42;;;;;;;;;;5091363;28;20089;-69
2022/09/21 06:15:11;;;;;;;4.32;1.10;;;;;;;;;;5091082;28;20023;-69
2022/09/21 06:17:37;;;;;;;7.18;1.90;;;;;;;;;;5087246;28;20032;-73
2022/09/21 06:20:06;;;;;;;3.13;1.17;;;;;;;;;;5090697;28;20046;-73
2022/09/21 06:22:32;;;;;;;4.28;1.48;;;;;;;;;;5085676;28;20098;-72
2022/09/21 06:24:59;;;;;;;4.15;1.63;;;;;;;;;;5074641;28;20027;-72
2022/09/21 06:27:25;;;;;;;7.82;1.40;;;;;;;;;;5039603;28;20042;-73
2022/09/21 06:29:51;;;;;;;10.40;1.38;;;;;;;;;;5012902;28;20037;-72
2022/09/21 06:32:18;;;;;;;5.97;1.48;;;;;;;;;;5019608;28;20040;-73
2022/09/21 06:34:44;;;;;;;3.40;1.10;;;;;;;;;;5033917;28;20031;-72
2022/09/21 06:37:10;;;;;;;6.18;1.30;;;;;;;;;;5033224;28;20032;-72
2022/09/21 06:39:37;;;;;;;21.52;2.10;;;;;;;;;;5038245;28;20029;-70
2022/09/21 06:42:03;;;;;;;5.15;1.40;;;;;;;;;;5045492;28;20036;-71
2022/09/21 06:44:29;;;;;;;7.18;1.75;;;;;;;;;;5033495;28;20055;-69
2022/09/21 06:46:56;;;;;;;5.80;1.45;;;;;;;;;;5025308;28;20028;-72
2022/09/21 06:49:22;;;;;;;5.75;1.33;;;;;;;;;;5033027;28;20043;-69
2022/09/21 06:51:48;;;;;;;7.55;1.90;;;;;;;;;;5033690;28;20025;-73
2022/09/21 06:54:16;;;;;;;8.43;1.20;;;;;;;;;;5034164;28;20043;-73
2022/09/21 06:56:43;;;;;;;8.40;1.60;;;;;;;;;;5037494;28;20026;-71
2022/09/21 06:59:09;;;;;;;14.43;1.73;;;;;;;;;;5032711;28;20025;-71
2022/09/21 07:01:36;;;;;;;24.50;2.40;;;;;;;;;;5033944;28;20037;-73
2022/09/21 07:04:02;;;;;;;4.53;1.23;;;;;;;;;;5038908;28;20051;-72
2022/09/21 07:06:28;;;;;;;8.93;1.45;;;;;;;;;;5040547;28;20073;-71
2022/09/21 07:08:55;;;;;;;9.40;1.75;;;;;;;;;;5032059;28;20033;-73
2022/09/21 07:11:22;;;;;;;7.53;1.88;;;;;;;;;;5033346;28;20037;-75
2022/09/21 07:13:49;;;;;;;17.25;2.00;;;;;;;;;;5033281;28;20025;-76
2022/09/21 07:16:15;;;;;;;9.40;1.55;;;;;;;;;;5033421;28;20044;-74
2022/09/21 07:18:42;;;;;;;6.28;1.10;;;;;;;;;;5033421;28;20029;-82
2022/09/21 07:21:10;;;;;;;7.60;1.17;;;;;;;;;;5033045;28;20032;-77
2022/09/21 07:23:36;;;;;;;8.38;1.33;;;;;;;;;;5032805;28;20068;-77
2022/09/21 07:26:05;;;;;;;6.43;1.40;;;;;;;;;;5032511;28;20025;-76
2022/09/21 07:28:31;;;;;;;10.50;1.83;;;;;;;;;;5026214;28;20029;-77
2022/09/21 07:30:58;;;;;;;20.77;2.15;;;;;;;;;;5021309;28;20028;-71
2022/09/21 07:33:25;;;;;;;11.32;2.00;;;;;;;;;;5015670;28;21515;-76
2022/09/21 07:35:52;;;;;;;10.57;1.95;;;;;;;;;;5031408;28;20508;-79
2022/09/21 07:38:19;;;;;;;9.15;2.03;;;;;;;;;;5026260;28;20013;-74
2022/09/21 07:40:45;;;;;;;638.30;38.15;;;;;;;;;;5018812;28;20083;-77
2022/09/21 07:43:12;;;;;;;161.05;11.63;;;;;;;;;;5013233;28;20446;-77
2022/09/21 07:45:38;;;;;;;9.52;2.10;;;;;;;;;;5029093;28;20026;-78
2022/09/21 07:48:05;;;;;;;14.05;2.38;;;;;;;;;;5011426;28;20112;-76
2022/09/21 07:50:35;;;;;;;4.35;1.70;;;;;;;;;;5038591;28;20026;-77
2022/09/21 07:53:02;;;;;;;9.27;2.13;;;;;;;;;;5028339;28;20029;-80
2022/09/21 07:55:29;;;;;;;86.53;7.07;;;;;;;;;;5016252;28;20029;-79
2022/09/21 08:00:40;;;;;;;12.10;2.15;;;;;;;;;;5031325;28;20017;-79
2022/09/21 08:03:07;;;;;;;10.48;2.10;;;;;;;;;;5030509;28;20029;-80
2022/09/21 08:05:33;;;;;;;5.93;2.08;;;;;;;;;;5030769;28;20033;-80
2022/09/21 08:07:59;;;;;;;12.63;2.15;;;;;;;;;;5031295;28;20029;-81
2022/09/21 08:10:27;;;;;;;7.18;1.88;;;;;;;;;;5030321;28;20025;-76
2022/09/21 08:12:54;;;;;;;7.05;1.83;;;;;;;;;;5045868;28;20037;-74
2022/09/21 08:15:21;;;;;;;13.25;2.00;;;;;;;;;;5030900;28;20030;-73
2022/09/21 08:17:47;;;;;;;7.43;1.60;;;;;;;;;;5031110;28;20036;-75
2022/09/21 08:20:14;;;;;;;6.60;1.95;;;;;;;;;;5028811;28;20025;-73
2022/09/21 08:22:40;;;;;;;12.25;1.70;;;;;;;;;;5031157;28;20037;-75
2022/09/21 08:25:07;;;;;;;6.18;1.30;;;;;;;;;;5031525;28;20482;-75
2022/09/21 08:27:33;;;;;;;5.75;1.42;;;;;;;;;;5031337;28;20035;-75
2022/09/21 08:30:00;;;;;;;5.07;1.38;;;;;;;;;;5030004;28;20013;-76
2022/09/21 08:32:26;;;;;;;5.70;1.30;;;;;;;;;;5022042;28;20026;-75
2022/09/21 08:34:53;;;;;;;3.00;1.30;;;;;;;;;;5027665;28;20017;-74
2022/09/21 08:37:20;;;;;;;8.38;1.40;;;;;;;;;;5027966;28;20482;-74
2022/09/21 08:39:47;;;;;;;5.95;1.10;;;;;;;;;;5011445;28;20505;-75
2022/09/21 08:42:24;;;;;;;3.90;1.23;;;;;;;;;;5010731;28;20025;-75
2022/09/21 08:45:04;;;;;;;4.57;1.30;;;;;;;;;;5011683;28;20394;-75
2022/09/21 08:47:39;;;;;;;3.28;1.40;;;;;;;;;;5011679;28;20479;-74
2022/09/21 08:50:10;;;;;;;3.53;1.40;;;;;;;;;;5015280;28;20385;-74
2022/09/21 08:52:36;;;;;;;1.83;1.10;;;;;;;;;;5026689;28;20037;-75
2022/09/21 08:55:06;;;;;;;2.70;1.38;;;;;;;;;;5011691;28;20018;-72
2022/09/21 08:57:33;;;;;;;;;;;;;;;;;;5019630;28;20022;-75
2022/09/21 09:00:00;;;;;;;3.45;1.25;;;;;;;;;;5030878;28;19909;-74
2022/09/21 09:02:30;;;;;;;4.65;1.10;;;;;;;;;;5029517;28;20396;-75
2022/09/21 09:05:08;;;;;;;4.65;1.20;;;;;;;;;;5031088;28;20025;-75
2022/09/21 09:07:44;;;;;;;3.03;1.00;;;;;;;;;;5038041;28;20033;-75
2022/09/21 09:10:16;;;;;;;5.22;1.27;;;;;;;;;;5028768;28;20017;-75
2022/09/21 09:12:45;;;;;;;2.40;0.90;;;;;;;;;;5026123;28;20055;-74
2022/09/21 09:15:30;;;;;;;6.60;1.30;;;;;;;;;;5030677;28;20032;-75
2022/09/21 09:17:57;;;;;;;4.55;1.30;;;;;;;;;;5025521;28;20038;-75
2022/09/21 09:20:32;;;;;;;4.45;1.13;;;;;;;;;;5021240;28;20018;-75
2022/09/21 09:23:01;;;;;;;3.50;1.00;;;;;;;;;;5029988;28;20042;-75
2022/09/21 09:25:31;;;;;;;4.63;1.20;;;;;;;;;;5030455;28;20030;-75
2022/09/21 09:28:00;;;;;;;2.33;0.95;;;;;;;;;;5030648;28;20274;-76
2022/09/21 09:30:30;;;;;;;2.07;1.03;;;;;;;;;;5030298;28;20020;-75
2022/09/21 09:32:56;;;;;;;2.65;0.90;;;;;;;;;;5030172;28;20516;-76
2022/09/21 09:35:25;;;;;;;1.67;0.80;;;;;;;;;;5030626;28;20024;-75
2022/09/21 09:37:54;;;;;;;1.83;0.80;;;;;;;;;;5030849;28;20033;-75
2022/09/21 09:40:29;;;;;;;2.55;0.60;;;;;;;;;;5030819;28;20512;-76
2022/09/21 09:43:01;;;;;;;3.10;0.77;;;;;;;;;;5026134;28;20030;-75
2022/09/21 09:45:30;;;;;;;3.85;0.90;;;;;;;;;;5019978;28;20044;-76
2022/09/21 09:48:03;;;;;;;1.73;0.63;;;;;;;;;;5029755;28;20565;-75
2022/09/21 09:50:31;;;;;;;5.18;0.90;;;;;;;;;;5026495;28;20029;-76
2022/09/21 09:53:10;;;;;;;3.33;0.90;;;;;;;;;;5024072;28;20286;-75
2022/09/21 09:55:37;;;;;;;2.60;0.85;;;;;;;;;;5028329;28;20030;-75
2022/09/21 09:58:04;;;;;;;4.63;0.93;;;;;;;;;;5026797;28;20524;-75
2022/09/21 10:00:30;;;;;;;2.92;0.95;;;;;;;;;;5023409;28;20022;-75
2022/09/21 10:02:57;;;;;;;2.05;0.73;;;;;;;;;;5025114;28;20486;-76
2022/09/21 10:05:30;;;;;;;5.75;0.80;;;;;;;;;;5033106;28;20421;-75
2022/09/21 10:07:57;;;;;;;3.72;0.70;;;;;;;;;;5034331;28;20026;-75
2022/09/21 10:10:26;;;;;;;2.08;0.73;;;;;;;;;;5030572;28;20022;-75
2022/09/21 10:12:53;;;;;;;4.95;1.25;;;;;;;;;;5048188;28;20055;-75
2022/09/21 10:15:20;;;;;;;6.63;1.50;;;;;;;;;;5033869;28;20052;-75
2022/09/21 10:17:47;;;;;;;3.17;0.98;;;;;;;;;;5034152;28;20033;-75
2022/09/21 10:20:16;;;;;;;4.63;1.10;;;;;;;;;;5033899;28;20539;-76
2022/09/21 10:22:45;;;;;;;4.18;0.98;;;;;;;;;;5032557;28;20035;-75
2022/09/21 10:25:16;;;;;;;1.70;0.70;;;;;;;;;;5034588;28;20029;-76
2022/09/21 10:27:43;;;;;;;1.67;0.90;;;;;;;;;;5033708;28;20025;-76
2022/09/21 10:30:30;;;;;;;2.05;1.00;;;;;;;;;;5033772;28;20383;-75
2022/09/21 10:32:57;;;;;;;2.40;0.82;;;;;;;;;;5028719;28;20111;-76
2022/09/21 10:35:24;;;;;;;3.75;0.90;;;;;;;;;;5032274;28;20017;-75
2022/09/21 10:38:10;;;;;;;3.22;0.93;;;;;;;;;;5033299;28;20044;-77
2022/09/21 10:40:37;;;;;;;4.20;0.80;;;;;;;;;;5032480;28;20424;-71
2022/09/21 10:43:03;;;;;;;7.53;1.00;;;;;;;;;;5032804;28;20030;-76
2022/09/21 10:45:31;;;;;;;1.77;0.80;;;;;;;;;;5033426;28;20025;-74
2022/09/21 10:48:07;;;;;;;3.28;0.75;;;;;;;;;;5032470;28;20025;-72
2022/09/21 10:50:43;;;;;;;2.55;0.95;;;;;;;;;;5032479;28;20031;-73
2022/09/21 10:53:10;;;;;;;1.25;0.90;;;;;;;;;;5033242;28;20040;-72
2022/09/21 10:55:40;;;;;;;1.70;0.80;;;;;;;;;;5033668;28;20481;-75
2022/09/21 10:58:11;;;;;;;2.67;0.90;;;;;;;;;;5033665;28;20500;-72
2022/09/21 11:00:37;;;;;;;;;;;;;;;;;;5033547;28;20026;-77
2022/09/21 11:03:23;;;;;;;5.82;0.80;;;;;;;;;;5032763;28;19916;-77
2022/09/21 11:05:51;;;;;;;4.25;0.90;;;;;;;;;;5032943;28;20020;-75
2022/09/21 11:08:29;;;;;;;1.38;0.70;;;;;;;;;;5033510;28;20024;-72
2022/09/21 11:11:14;;;;;;;6.95;1.08;;;;;;;;;;5032927;28;20039;-71
2022/09/21 11:13:55;;;;;;;2.10;0.82;;;;;;;;;;5033109;28;20588;-71
2022/09/21 11:16:21;;;;;;;0.60;0.60;;;;;;;;;;5033076;28;20022;-71
2022/09/21 11:18:56;;;;;;;4.35;0.77;;;;;;;;;;5033355;28;20041;-70
2022/09/21 11:21:46;;;;;;;5.80;0.68;;;;;;;;;;5033590;28;20082;-71
2022/09/21 11:24:31;;;;;;;1.95;0.73;;;;;;;;;;5031088;28;20023;-71
2022/09/21 11:27:03;;;;;;;2.60;0.88;;;;;;;;;;5032517;28;20021;-70
2022/09/21 11:29:50;;;;;;;3.30;0.73;;;;;;;;;;5031445;28;20029;-70
2022/09/21 11:32:31;;;;;;;1.63;0.70;;;;;;;;;;5015378;28;20387;-71
2022/09/21 11:35:01;;;;;;;4.25;0.70;;;;;;;;;;5013019;28;20347;-71
2022/09/21 11:37:30;;;;;;;4.03;0.70;;;;;;;;;;5013115;28;20049;-70
2022/09/21 11:39:57;;;;;;;4.00;1.05;;;;;;;;;;5013164;28;20128;-70
2022/09/21 11:42:33;;;;;;;4.97;0.63;;;;;;;;;;5012690;28;20022;-70
2022/09/21 11:45:00;;;;;;;1.75;0.90;;;;;;;;;;5012920;28;20032;-70
2022/09/21 11:47:36;;;;;;;1.23;0.75;;;;;;;;;;5011088;28;20029;-71
2022/09/21 11:50:03;;;;;;;3.72;0.82;;;;;;;;;;5010974;28;20025;-71
2022/09/21 11:52:36;;;;;;;2.20;0.82;;;;;;;;;;5011420;28;20433;-71
2022/09/21 11:55:22;;;;;;;4.70;0.80;;;;;;;;;;5012715;28;20516;-70
2022/09/21 11:58:09;;;;;;;3.63;0.90;;;;;;;;;;5022074;28;20020;-71
2022/09/21 12:00:48;;;;;;;4.63;0.88;;;;;;;;;;5026027;28;20036;-71
2022/09/21 12:03:17;;;;;;;3.72;0.90;;;;;;;;;;5012081;28;20515;-71
2022/09/21 12:06:02;;;;;;;1.98;0.80;;;;;;;;;;5012686;28;20520;-71
2022/09/21 12:08:34;;;;;;;9.10;1.00;;;;;;;;;;5012227;28;20036;-71
2022/09/21 12:11:27;;;;;;;11.32;1.20;;;;;;;;;;5015934;28;20524;-71
2022/09/21 12:14:06;;;;;;;5.28;1.20;;;;;;;;;;5031938;28;20064;-71
2022/09/21 12:16:45;;;;;;;2.90;0.98;;;;;;;;;;5029198;28;20035;-70
2022/09/21 12:19:26;;;;;;;8.40;1.15;;;;;;;;;;5030709;28;20040;-70
2022/09/21 12:21:59;;;;;;;7.93;1.00;;;;;;;;;;5031305;28;20025;-70
2022/09/21 12:24:28;;;;;;;3.10;1.13;;;;;;;;;;5011849;28;20032;-71
2022/09/21 12:26:57;;;;;;;6.90;1.17;;;;;;;;;;5011789;28;20022;-71
2022/09/21 12:29:31;;;;;;;4.38;1.10;;;;;;;;;;5021907;28;20031;-71
2022/09/21 12:32:16;;;;;;;5.50;1.30;;;;;;;;;;5031465;28;20029;-71
2022/09/21 12:34:45;;;;;;;9.10;1.05;;;;;;;;;;5030787;28;20052;-71
2022/09/21 12:37:18;;;;;;;4.10;1.05;;;;;;;;;;5029163;28;20478;-71
2022/09/21 12:39:47;;;;;;;7.82;1.17;;;;;;;;;;5012422;28;20029;-71
2022/09/21 12:42:17;;;;;;;4.80;1.20;;;;;;;;;;5013302;28;20026;-71
2022/09/21 12:44:53;;;;;;;4.93;1.05;;;;;;;;;;5010672;28;20040;-71
2022/09/21 12:47:23;;;;;;;4.28;1.15;;;;;;;;;;5016616;28;20017;-71
2022/09/21 12:49:51;;;;;;;4.82;1.38;;;;;;;;;;5010814;28;20029;-72
2022/09/21 12:52:20;;;;;;;7.32;1.30;;;;;;;;;;5010717;28;20030;-71
2022/09/21 12:54:55;;;;;;;10.90;1.25;;;;;;;;;;5011388;28;20520;-71
2022/09/21 12:57:30;;;;;;;10.68;1.30;;;;;;;;;;5011435;28;20506;-71
2022/09/21 13:00:06;;;;;;;8.80;1.65;;;;;;;;;;5011335;28;20026;-71
2022/09/21 13:02:51;;;;;;;9.00;1.35;;;;;;;;;;5011523;28;20026;-71
2022/09/21 13:05:33;;;;;;;7.85;1.40;;;;;;;;;;5011081;28;20037;-71
2022/09/21 13:08:11;;;;;;;5.78;1.63;;;;;;;;;;5011437;28;20028;-71
2022/09/21 13:10:38;;;;;;;7.65;1.35;;;;;;;;;;5011660;28;20034;-71
2022/09/21 13:13:09;;;;;;;6.75;1.30;;;;;;;;;;5030963;28;20536;-71
2022/09/21 13:15:44;;;;;;;15.57;1.58;;;;;;;;;;5029765;28;20037;-71
2022/09/21 13:18:20;;;;;;;8.48;2.25;;;;;;;;;;5031206;28;20030;-71
2022/09/21 13:20:49;;;;;;;8.52;1.50;;;;;;;;;;5030020;28;20494;-71
2022/09/21 13:23:16;;;;;;;8.65;1.33;;;;;;;;;;5018642;28;20048;-70
2022/09/21 13:25:47;;;;;;;16.65;1.50;;;;;;;;;;5009954;28;20026;-71
2022/09/21 13:28:14;;;;;;;10.85;1.70;;;;;;;;;;5015031;28;20025;-71
2022/09/21 13:30:42;;;;;;;9.20;1.38;;;;;;;;;;5035253;28;20026;-70
2022/09/21 13:33:21;;;;;;;4.57;1.35;;;;;;;;;;5035279;28;20029;-71
2022/09/21 13:36:01;;;;;;;14.38;1.38;;;;;;;;;;5034497;28;20032;-71
2022/09/21 13:38:29;;;;;;;8.98;1.65;;;;;;;;;;5034731;28;20014;-70
2022/09/21 13:40:57;;;;;;;6.03;1.42;;;;;;;;;;5035233;28;20029;-70
2022/09/21 13:43:24;;;;;;;9.80;1.40;;;;;;;;;;5034347;28;20041;-71
2022/09/21 13:45:52;;;;;;;7.57;1.30;;;;;;;;;;5032348;28;20026;-72
2022/09/21 13:48:24;;;;;;;3.17;1.20;;;;;;;;;;5035149;28;20037;-71
2022/09/21 13:50:51;;;;;;;7.45;1.40;;;;;;;;;;5034835;28;20028;-71
2022/09/21 13:53:18;;;;;;;6.05;1.40;;;;;;;;;;5033825;28;20033;-71
2022/09/21 13:55:49;;;;;;;8.43;1.42;;;;;;;;;;5017387;28;20566;-71
2022/09/21 13:58:36;;;;;;;10.35;1.38;;;;;;;;;;5030282;28;20034;-71
2022/09/21 14:01:06;;;;;;;4.70;0.95;;;;;;;;;;5014921;28;20032;-71
2022/09/21 14:03:38;;;;;;;8.15;1.23;;;;;;;;;;5024273;28;20026;-70
2022/09/21 14:06:07;;;;;;;7.25;1.08;;;;;;;;;;5034534;28;20021;-71
2022/09/21 14:08:36;;;;;;;9.43;1.20;;;;;;;;;;5032782;28;20036;-71
2022/09/21 14:11:08;;;;;;;6.03;0.82;;;;;;;;;;5033812;28;20041;-71
2022/09/21 14:13:34;;;;;;;6.13;1.10;;;;;;;;;;5033867;28;20021;-72
2022/09/21 14:16:19;;;;;;;3.83;1.08;;;;;;;;;;5033405;28;20059;-72
2022/09/21 14:18:45;;;;;;;3.65;1.33;;;;;;;;;;5034676;28;20032;-71
2022/09/21 14:21:17;;;;;;;1.83;1.10;;;;;;;;;;5022992;28;20072;-71
2022/09/21 14:24:03;;;;;;;5.60;1.35;;;;;;;;;;5029481;28;20475;-71
2022/09/21 14:26:38;;;;;;;3.63;0.95;;;;;;;;;;5033076;28;20067;-69
2022/09/21 14:29:06;;;;;;;12.38;1.20;;;;;;;;;;5033964;28;20033;-71
2022/09/21 14:31:37;;;;;;;10.60;1.25;;;;;;;;;;5019672;28;20030;-71
2022/09/21 14:34:07;;;;;;;8.73;1.30;;;;;;;;;;5029596;28;20030;-70
2022/09/21 14:36:40;;;;;;;4.75;1.17;;;;;;;;;;5013703;28;20385;-71
2022/09/21 14:39:12;;;;;;;3.63;1.10;;;;;;;;;;5030481;28;20500;-71
2022/09/21 14:41:40;;;;;;;3.90;1.00;;;;;;;;;;5033939;28;20033;-71
2022/09/21 14:44:12;;;;;;;6.85;0.90;;;;;;;;;;5032772;28;20033;-71
2022/09/21 14:46:45;;;;;;;4.75;1.63;;;;;;;;;;5034158;28;20032;-71
2022/09/21 14:49:11;;;;;;;8.27;1.40;;;;;;;;;;5032550;28;20029;-71
2022/09/21 14:52:11;;;;;;;9.18;1.55;;;;;;;;;;5033584;28;20037;-71
2022/09/21 14:54:44;;;;;;;5.55;1.08;;;;;;;;;;5012471;28;20029;-71
2022/09/21 14:57:13;;;;;;;6.25;0.90;;;;;;;;;;5012412;28;20044;-70
2022/09/21 14:59:47;;;;;;;2.72;0.80;;;;;;;;;;5012791;28;20052;-71
2022/09/21 15:02:16;;;;;;;6.43;1.10;;;;;;;;;;5012200;28;20556;-71
2022/09/21 15:05:02;;;;;;;6.57;0.90;;;;;;;;;;5012475;28;20402;-71